Home > Products > Valid Products > TAF

000
FTUS45 KBOI 040231 AAB
TAFBOI
TAF AMD
KBOI 040231Z 0403/0424 34008KT P6SM SKC
     FM040800 VRB05KT P6SM SKC
     FM041900 29005KT P6SM SKC=



000
FTUS45 KBOI 040231 AAB
TAFBOI
TAF AMD
KBOI 040231Z 0403/0424 34008KT P6SM SKC
     FM040800 VRB05KT P6SM SKC
     FM041900 29005KT P6SM SKC=



000
FTUS45 KBOI 040231 AAA
TAFBKE
TAF AMD
KBKE 040231Z 0403/0424 33012KT P6SM SKC
     FM040500 31005KT P6SM SKC=



000
FTUS45 KBOI 040231 AAA
TAFBKE
TAF AMD
KBKE 040231Z 0403/0424 33012KT P6SM SKC
     FM040500 31005KT P6SM SKC=



000
FTUS45 KBOI 040012 AAA
TAFMYL
TAF AMD
KMYL 040012Z 0400/0424 33008KT P6SM SKC
     FM040400 VRB03KT P6SM SKC=



000
FTUS45 KBOI 040012 AAA
TAFMYL
TAF AMD
KMYL 040012Z 0400/0424 33008KT P6SM SKC
     FM040400 VRB03KT P6SM SKC=



000
FTUS45 KBOI 040012 AAA
TAFMYL
TAF AMD
KMYL 040012Z 0400/0424 33008KT P6SM SKC
     FM040400 VRB03KT P6SM SKC=



000
FTUS45 KBOI 040012 AAA
TAFMYL
TAF AMD
KMYL 040012Z 0400/0424 33008KT P6SM SKC
     FM040400 VRB03KT P6SM SKC=



000
FTUS45 KBOI 032320
TAFBNO
TAF
KBNO 032320Z 0400/0424 29010KT P6SM SKC
     FM040400 VRB05KT P6SM SKC
      AMD LTD TO VIS CLD AND WIND=



000
FTUS45 KBOI 032320
TAFBKE
TAF
KBKE 032320Z 0400/0424 33015G25KT P6SM SKC
     FM040500 31005KT P6SM SKC=



000
FTUS45 KBOI 032320
TAFBKE
TAF
KBKE 032320Z 0400/0424 33015G25KT P6SM SKC
     FM040500 31005KT P6SM SKC=



000
FTUS45 KBOI 032320
TAFMYL
TAF
KMYL 032320Z 0400/0424 34010G20KT P6SM SKC
     FM040400 VRB03KT P6SM SKC=



000
FTUS45 KBOI 032320
TAFTWF
TAF
KTWF 032320Z 0400/0424 28015G20KT P6SM OVC050
     FM040300 23012KT P6SM SKC
     FM041800 27010KT P6SM SKC=



000
FTUS45 KBOI 032320
TAFJER
TAF
KJER 032320Z 0400/0424 24015G25KT P6SM BKN050
     FM040500 22010KT P6SM SKC=



000
FTUS45 KBOI 032320
TAFMYL
TAF
KMYL 032320Z 0400/0424 34010G20KT P6SM SKC
     FM040400 VRB03KT P6SM SKC=



000
FTUS45 KBOI 032320
TAFTWF
TAF
KTWF 032320Z 0400/0424 28015G20KT P6SM OVC050
     FM040300 23012KT P6SM SKC
     FM041800 27010KT P6SM SKC=



000
FTUS45 KBOI 032320
TAFBOI
TAF
KBOI 032320Z 0400/0424 34012G22KT P6SM FEW060
     FM040300 VRB06KT P6SM SKC
     FM041900 29005KT P6SM SKC=



000
FTUS45 KBOI 032320
TAFBOI
TAF
KBOI 032320Z 0400/0424 34012G22KT P6SM FEW060
     FM040300 VRB06KT P6SM SKC
     FM041900 29005KT P6SM SKC=



000
FTUS45 KBOI 032320
TAFBNO
TAF
KBNO 032320Z 0400/0424 29010KT P6SM SKC
     FM040400 VRB05KT P6SM SKC
      AMD LTD TO VIS CLD AND WIND=



000
FTUS45 KBOI 032320
TAFJER
TAF
KJER 032320Z 0400/0424 24015G25KT P6SM BKN050
     FM040500 22010KT P6SM SKC=



000
FTUS45 KBOI 032213 AAA
TAFBKE
TAF AMD
KBKE 032213Z 0322/0418 32015G20KT P6SM SCT100
     FM040700 VRB05KT P6SM SKC=



000
FTUS45 KBOI 032200 AAB
TAFTWF
TAF AMD
KTWF 032200Z 0322/0418 26020KT P6SM SCT050
     FM040300 23012KT P6SM SKC=



000
FTUS45 KBOI 032200 AAB
TAFTWF
TAF AMD
KTWF 032200Z 0322/0418 26020KT P6SM SCT050
     FM040300 23012KT P6SM SKC=



000
FTUS45 KBOI 032200 AAB
TAFTWF
TAF AMD
KTWF 032200Z 0322/0418 26020KT P6SM SCT050
     FM040300 23012KT P6SM SKC=



000
FTUS45 KBOI 031805 AAA
TAFJER
TAF AMD
KJER 031805Z 0318/0418 VRB05KT P6SM VCSH FEW040 BKN050
     FM032100 23007KT P6SM SKC=



000
FTUS45 KBOI 031805 AAA
TAFJER
TAF AMD
KJER 031805Z 0318/0418 VRB05KT P6SM VCSH FEW040 BKN050
     FM032100 23007KT P6SM SKC=



000
FTUS45 KBOI 031801 AAA
TAFTWF
TAF AMD
KTWF 031801Z 0318/0418 26020KT P6SM VCSH FEW050
     FM032100 23012KT P6SM SKC=



000
FTUS45 KBOI 031725
TAFJER
TAF
KJER 031725Z 0318/0418 25015KT P6SM VCSH FEW040 BKN050
     FM032100 23007KT P6SM SKC=



000
FTUS45 KBOI 031725
TAFBNO
TAF
KBNO 031725Z 0318/0418 30012KT P6SM SKC
     FM040400 VRB05KT P6SM SKC
      AMD LTD TO VIS CLD AND WIND=



000
FTUS45 KBOI 031725
TAFBOI
TAF
KBOI 031725Z 0318/0418 31017KT P6SM SKC
     FM040300 VRB06KT P6SM SKC=



000
FTUS45 KBOI 031725
TAFBKE
TAF
KBKE 031725Z 0318/0418 32015KT P6SM SCT030
     FM040300 VRB05KT P6SM SKC=



000
FTUS45 KBOI 031725
TAFBOI
TAF
KBOI 031725Z 0318/0418 31017KT P6SM SKC
     FM040300 VRB06KT P6SM SKC=



000
FTUS45 KBOI 031725
TAFMYL
TAF
KMYL 031725Z 0318/0418 35005G16KT P6SM BKN045
     FM032000 32010KT P6SM SKC
     FM040400 VRB03KT P6SM SKC=



000
FTUS45 KBOI 031725
TAFTWF
TAF
KTWF 031725Z 0318/0418 24028G35KT P6SM VCSH FEW050
     FM032100 23012KT P6SM SKC=



000
FTUS45 KBOI 031725
TAFMYL
TAF
KMYL 031725Z 0318/0418 35005G16KT P6SM BKN045
     FM032000 32010KT P6SM SKC
     FM040400 VRB03KT P6SM SKC=



000
FTUS45 KBOI 031725
TAFBNO
TAF
KBNO 031725Z 0318/0418 30012KT P6SM SKC
     FM040400 VRB05KT P6SM SKC
      AMD LTD TO VIS CLD AND WIND=



000
FTUS45 KBOI 031725
TAFBKE
TAF
KBKE 031725Z 0318/0418 32015KT P6SM SCT030
     FM040300 VRB05KT P6SM SKC=



000
FTUS45 KBOI 031725
TAFTWF
TAF
KTWF 031725Z 0318/0418 24028G35KT P6SM VCSH FEW050
     FM032100 23012KT P6SM SKC=



000
FTUS45 KBOI 031725
TAFBNO
TAF
KBNO 031725Z 0318/0418 30012KT P6SM SKC
     FM040400 VRB05KT P6SM SKC
      AMD LTD TO VIS CLD AND WIND=



000
FTUS45 KBOI 031725
TAFBKE
TAF
KBKE 031725Z 0318/0418 32015KT P6SM SCT030
     FM040300 VRB05KT P6SM SKC=



000
FTUS45 KBOI 031725
TAFBOI
TAF
KBOI 031725Z 0318/0418 31017KT P6SM SKC
     FM040300 VRB06KT P6SM SKC=



000
FTUS45 KBOI 031725
TAFMYL
TAF
KMYL 031725Z 0318/0418 35005G16KT P6SM BKN045
     FM032000 32010KT P6SM SKC
     FM040400 VRB03KT P6SM SKC=



000
FTUS45 KBOI 031725
TAFMYL
TAF
KMYL 031725Z 0318/0418 35005G16KT P6SM BKN045
     FM032000 32010KT P6SM SKC
     FM040400 VRB03KT P6SM SKC=



000
FTUS45 KBOI 031725
TAFJER
TAF
KJER 031725Z 0318/0418 25015KT P6SM VCSH FEW040 BKN050
     FM032100 23007KT P6SM SKC=



000
FTUS45 KBOI 031725
TAFJER
TAF
KJER 031725Z 0318/0418 25015KT P6SM VCSH FEW040 BKN050
     FM032100 23007KT P6SM SKC=



000
FTUS45 KBOI 031725
TAFTWF
TAF
KTWF 031725Z 0318/0418 24028G35KT P6SM VCSH FEW050
     FM032100 23012KT P6SM SKC=



000
FTUS45 KBOI 031725
TAFTWF
TAF
KTWF 031725Z 0318/0418 24028G35KT P6SM VCSH FEW050
     FM032100 23012KT P6SM SKC=



000
FTUS45 KBOI 031725
TAFJER
TAF
KJER 031725Z 0318/0418 25015KT P6SM VCSH FEW040 BKN050
     FM032100 23007KT P6SM SKC=



000
FTUS45 KBOI 031725
TAFBOI
TAF
KBOI 031725Z 0318/0418 31017KT P6SM SKC
     FM040300 VRB06KT P6SM SKC=



000
FTUS45 KBOI 031725
TAFBKE
TAF
KBKE 031725Z 0318/0418 32015KT P6SM SCT030
     FM040300 VRB05KT P6SM SKC=



000
FTUS45 KBOI 031725
TAFBNO
TAF
KBNO 031725Z 0318/0418 30012KT P6SM SKC
     FM040400 VRB05KT P6SM SKC
      AMD LTD TO VIS CLD AND WIND=



000
FTUS45 KBOI 031120
TAFJER
TAF
KJER 031120Z 0312/0412 25020G30KT P6SM SCT015 SCT100
     FM040700 23010KT P6SM SKC=



000
FTUS45 KBOI 031120
TAFBOI
TAF
KBOI 031120Z 0312/0412 31010KT P6SM SCT050
     FM031700 31017G27KT P6SM SKC
     FM040300 VRB06KT P6SM SKC=



000
FTUS45 KBOI 031120
TAFBNO
TAF
KBNO 031120Z 0312/0412 26008KT P6SM BKN040
     FM032100 30010KT P6SM SKC
      AMD LTD TO VIS CLD AND WIND=



000
FTUS45 KBOI 031120
TAFJER
TAF
KJER 031120Z 0312/0412 25020G30KT P6SM SCT015 SCT100
     FM040700 23010KT P6SM SKC=



000
FTUS45 KBOI 031120
TAFBKE
TAF
KBKE 031120Z 0312/0412 32010KT P6SM SCT090
     FM031800 32014G24KT P6SM SKC
     FM040300 VRB05KT P6SM SKC=



000
FTUS45 KBOI 031120
TAFBKE
TAF
KBKE 031120Z 0312/0412 32010KT P6SM SCT090
     FM031800 32014G24KT P6SM SKC
     FM040300 VRB05KT P6SM SKC=



000
FTUS45 KBOI 031120
TAFTWF
TAF
KTWF 031120Z 0312/0412 24020G30KT P6SM SCT150
     FM040700 22010KT P6SM SKC=



000
FTUS45 KBOI 031120
TAFMYL
TAF
KMYL 031120Z 0312/0412 VRB05KT P6SM SCT100
     FM032100 32011KT P6SM SKC
     FM040400 VRB03KT P6SM SKC=



000
FTUS45 KBOI 031120
TAFBOI
TAF
KBOI 031120Z 0312/0412 31010KT P6SM SCT050
     FM031700 31017G27KT P6SM SKC
     FM040300 VRB06KT P6SM SKC=



000
FTUS45 KBOI 031120
TAFBNO
TAF
KBNO 031120Z 0312/0412 26008KT P6SM BKN040
     FM032100 30010KT P6SM SKC
      AMD LTD TO VIS CLD AND WIND=



000
FTUS45 KBOI 031120
TAFTWF
TAF
KTWF 031120Z 0312/0412 24020G30KT P6SM SCT150
     FM040700 22010KT P6SM SKC=



000
FTUS45 KBOI 030521
TAFBNO
TAF
KBNO 030521Z 0306/0406 27008KT P6SM SCT080
      AMD LTD TO VIS CLD AND WIND=



000
FTUS45 KBOI 030521
TAFMYL
TAF
KMYL 030521Z 0306/0406 34006KT P6SM VCSH SCT040 BKN080
     FM030800 VRB05KT P6SM SCT080=



000
FTUS45 KBOI 030521
TAFBKE
TAF
KBKE 030521Z 0306/0406 32006KT P6SM SCT090
     FM031800 32014G24KT P6SM SKC=



000
FTUS45 KBOI 030521
TAFBNO
TAF
KBNO 030521Z 0306/0406 27008KT P6SM SCT080
      AMD LTD TO VIS CLD AND WIND=



000
FTUS45 KBOI 030521
TAFTWF
TAF
KTWF 030521Z 0306/0406 24015KT P6SM OVC120
     FM030630 24020G30KT P6SM SCT150=



000
FTUS45 KBOI 030521
TAFJER
TAF
KJER 030521Z 0306/0406 25008KT P6SM BKN100
     FM030630 25020G30KT P6SM SCT070 SCT150=



000
FTUS45 KBOI 030521
TAFMYL
TAF
KMYL 030521Z 0306/0406 34006KT P6SM VCSH SCT040 BKN080
     FM030800 VRB05KT P6SM SCT080=



000
FTUS45 KBOI 030521
TAFBKE
TAF
KBKE 030521Z 0306/0406 32006KT P6SM SCT090
     FM031800 32014G24KT P6SM SKC=



000
FTUS45 KBOI 030521
TAFBOI
TAF
KBOI 030521Z 0306/0406 31010KT P6SM SCT050
     FM031700 31017G27KT P6SM SKC=



000
FTUS45 KBOI 030521
TAFTWF
TAF
KTWF 030521Z 0306/0406 24015KT P6SM OVC120
     FM030630 24020G30KT P6SM SCT150=



000
FTUS45 KBOI 030521
TAFBOI
TAF
KBOI 030521Z 0306/0406 31010KT P6SM SCT050
     FM031700 31017G27KT P6SM SKC=



000
FTUS45 KBOI 030521
TAFJER
TAF
KJER 030521Z 0306/0406 25008KT P6SM BKN100
     FM030630 25020G30KT P6SM SCT070 SCT150=



000
FTUS45 KBOI 030359 AAA
TAFBNO
TAF AMD
KBNO 030359Z 0304/0324 31010KT P6SM SCT050 OVC080
     FM030500 27010KT P6SM SKC
      AMD LTD TO VIS CLD AND WIND=



000
FTUS45 KBOI 030359 AAA
TAFBNO
TAF AMD
KBNO 030359Z 0304/0324 31010KT P6SM SCT050 OVC080
     FM030500 27010KT P6SM SKC
      AMD LTD TO VIS CLD AND WIND=



000
FTUS45 KBOI 030359 AAA
TAFBNO
TAF AMD
KBNO 030359Z 0304/0324 31010KT P6SM SCT050 OVC080
     FM030500 27010KT P6SM SKC
      AMD LTD TO VIS CLD AND WIND=



000
FTUS45 KBOI 030359 AAA
TAFBNO
TAF AMD
KBNO 030359Z 0304/0324 31010KT P6SM SCT050 OVC080
     FM030500 27010KT P6SM SKC
      AMD LTD TO VIS CLD AND WIND=



000
FTUS45 KBOI 030346 AAA
TAFMYL
TAF AMD
KMYL 030346Z 0304/0324 34006KT P6SM VCSH OVC040
      TEMPO 0304/0306 5SM -SHSN BR OVC030
     FM030800 VRB05KT P6SM SKC=



000
FTUS45 KBOI 022327
TAFBKE
TAF
KBKE 022327Z 0300/0324 33019G29KT P6SM OVC060
     FM030600 32012KT P6SM SKC
     FM031800 32014G24KT P6SM SKC=



000
FTUS45 KBOI 022327
TAFJER
TAF
KJER 022327Z 0300/0324 25008KT P6SM BKN150
     FM030630 25020G30KT P6SM SCT150=



000
FTUS45 KBOI 022327
TAFMYL
TAF
KMYL 022327Z 0300/0324 31011KT P6SM VCSH BKN050 OVC080
     FM030400 34006KT P6SM OVC100
     FM030800 VRB05KT P6SM SKC=



000
FTUS45 KBOI 022327
TAFJER
TAF
KJER 022327Z 0300/0324 25008KT P6SM BKN150
     FM030630 25020G30KT P6SM SCT150=



000
FTUS45 KBOI 022327
TAFTWF
TAF
KTWF 022327Z 0300/0324 VRB06KT P6SM SCT150
     FM030200 24015KT P6SM OVC120
     FM030630 24020G30KT P6SM SCT150=



000
FTUS45 KBOI 022327
TAFBOI
TAF
KBOI 022327Z 0300/0324 31010KT P6SM BKN150
     FM030300 32015G25KT P6SM OVC080
     FM030600 31012KT P6SM SCT050
     FM031700 31017G27KT P6SM SKC=



000
FTUS45 KBOI 022327
TAFBNO
TAF
KBNO 022327Z 0300/0324 31013G23KT P6SM SCT050 OVC080
     FM030500 27010KT P6SM SKC
      AMD LTD TO VIS CLD AND WIND=



000
FTUS45 KBOI 022327
TAFBOI
TAF
KBOI 022327Z 0300/0324 31010KT P6SM BKN150
     FM030300 32015G25KT P6SM OVC080
     FM030600 31012KT P6SM SCT050
     FM031700 31017G27KT P6SM SKC=



000
FTUS45 KBOI 022327
TAFBKE
TAF
KBKE 022327Z 0300/0324 33019G29KT P6SM OVC060
     FM030600 32012KT P6SM SKC
     FM031800 32014G24KT P6SM SKC=



000
FTUS45 KBOI 022327
TAFMYL
TAF
KMYL 022327Z 0300/0324 31011KT P6SM VCSH BKN050 OVC080
     FM030400 34006KT P6SM OVC100
     FM030800 VRB05KT P6SM SKC=



000
FTUS45 KBOI 022327
TAFBNO
TAF
KBNO 022327Z 0300/0324 31013G23KT P6SM SCT050 OVC080
     FM030500 27010KT P6SM SKC
      AMD LTD TO VIS CLD AND WIND=



000
FTUS45 KBOI 022327
TAFTWF
TAF
KTWF 022327Z 0300/0324 VRB06KT P6SM SCT150
     FM030200 24015KT P6SM OVC120
     FM030630 24020G30KT P6SM SCT150=



000
FTUS45 KBOI 022207 AAA
TAFBKE
TAF AMD
KBKE 022207Z 0222/0318 33016KT P6SM BKN200
     FM022300 33015G28KT P6SM SCT100=



000
FTUS45 KBOI 022207 AAA
TAFBKE
TAF AMD
KBKE 022207Z 0222/0318 33016KT P6SM BKN200
     FM022300 33015G28KT P6SM SCT100=



000
FTUS45 KBOI 022203 AAA
TAFJER
TAF AMD
KJER 022203Z 0222/0318 25008KT P6SM BKN150
     FM030700 25020G30KT P6SM SCT150=



000
FTUS45 KBOI 022203 AAA
TAFJER
TAF AMD
KJER 022203Z 0222/0318 25008KT P6SM BKN150
     FM030700 25020G30KT P6SM SCT150=



000
FTUS45 KBOI 021734
TAFTWF
TAF
KTWF 021734Z 0218/0318 08006KT P6SM SKC
     FM022100 34007KT P6SM BKN150
     FM030200 24015KT P6SM BKN150
     FM030700 24020G30KT P6SM SCT150=



000
FTUS45 KBOI 021734
TAFBOI
TAF
KBOI 021734Z 0218/0318 11007KT P6SM SCT080
     FM022100 31008KT P6SM BKN150
     FM030600 31012KT P6SM SCT050=



000
FTUS45 KBOI 021734
TAFBKE
TAF
KBKE 021734Z 0218/0318 VRB06KT P6SM BKN200
     FM022300 33015G28KT P6SM SCT100=



000
FTUS45 KBOI 021734
TAFTWF
TAF
KTWF 021734Z 0218/0318 08006KT P6SM SKC
     FM022100 34007KT P6SM BKN150
     FM030200 24015KT P6SM BKN150
     FM030700 24020G30KT P6SM SCT150=



000
FTUS45 KBOI 021734
TAFMYL
TAF
KMYL 021734Z 0218/0318 VRB03KT P6SM SCT100
     FM022100 31006KT P6SM VCSH BKN050 OVC080=



000
FTUS45 KBOI 021734
TAFMYL
TAF
KMYL 021734Z 0218/0318 VRB03KT P6SM SCT100
     FM022100 31006KT P6SM VCSH BKN050 OVC080=



000
FTUS45 KBOI 021734
TAFJER
TAF
KJER 021734Z 0218/0318 05016KT P6SM SKC
     FM030100 25008KT P6SM BKN150
     FM030700 25020G30KT P6SM SCT150=



000
FTUS45 KBOI 021734
TAFBKE
TAF
KBKE 021734Z 0218/0318 VRB06KT P6SM BKN200
     FM022300 33015G28KT P6SM SCT100=



000
FTUS45 KBOI 021734
TAFJER
TAF
KJER 021734Z 0218/0318 05016KT P6SM SKC
     FM030100 25008KT P6SM BKN150
     FM030700 25020G30KT P6SM SCT150=



000
FTUS45 KBOI 021734
TAFJER
TAF
KJER 021734Z 0218/0318 05016KT P6SM SKC
     FM030100 25008KT P6SM BKN150
     FM030700 25020G30KT P6SM SCT150=



000
FTUS45 KBOI 021734
TAFBKE
TAF
KBKE 021734Z 0218/0318 VRB06KT P6SM BKN200
     FM022300 33015G28KT P6SM SCT100=



000
FTUS45 KBOI 021734
TAFMYL
TAF
KMYL 021734Z 0218/0318 VRB03KT P6SM SCT100
     FM022100 31006KT P6SM VCSH BKN050 OVC080=



000
FTUS45 KBOI 021734
TAFBNO
TAF
KBNO 021734Z 0218/0318 VRB05KT P6SM BKN150
     FM022300 31010G20KT P6SM SCT100
     FM031000 27010KT P6SM SCT100
      AMD LTD TO VIS CLD AND WIND=



000
FTUS45 KBOI 021734
TAFBOI
TAF
KBOI 021734Z 0218/0318 11007KT P6SM SCT080
     FM022100 31008KT P6SM BKN150
     FM030600 31012KT P6SM SCT050=



000
FTUS45 KBOI 021734
TAFTWF
TAF
KTWF 021734Z 0218/0318 08006KT P6SM SKC
     FM022100 34007KT P6SM BKN150
     FM030200 24015KT P6SM BKN150
     FM030700 24020G30KT P6SM SCT150=



000
FTUS45 KBOI 021734
TAFTWF
TAF
KTWF 021734Z 0218/0318 08006KT P6SM SKC
     FM022100 34007KT P6SM BKN150
     FM030200 24015KT P6SM BKN150
     FM030700 24020G30KT P6SM SCT150=



000
FTUS45 KBOI 021734
TAFMYL
TAF
KMYL 021734Z 0218/0318 VRB03KT P6SM SCT100
     FM022100 31006KT P6SM VCSH BKN050 OVC080=



000
FTUS45 KBOI 021734
TAFBOI
TAF
KBOI 021734Z 0218/0318 11007KT P6SM SCT080
     FM022100 31008KT P6SM BKN150
     FM030600 31012KT P6SM SCT050=



000
FTUS45 KBOI 021734
TAFBNO
TAF
KBNO 021734Z 0218/0318 VRB05KT P6SM BKN150
     FM022300 31010G20KT P6SM SCT100
     FM031000 27010KT P6SM SCT100
      AMD LTD TO VIS CLD AND WIND=



000
FTUS45 KBOI 021734
TAFBNO
TAF
KBNO 021734Z 0218/0318 VRB05KT P6SM BKN150
     FM022300 31010G20KT P6SM SCT100
     FM031000 27010KT P6SM SCT100
      AMD LTD TO VIS CLD AND WIND=



000
FTUS45 KBOI 021734
TAFBKE
TAF
KBKE 021734Z 0218/0318 VRB06KT P6SM BKN200
     FM022300 33015G28KT P6SM SCT100=



000
FTUS45 KBOI 021734
TAFBOI
TAF
KBOI 021734Z 0218/0318 11007KT P6SM SCT080
     FM022100 31008KT P6SM BKN150
     FM030600 31012KT P6SM SCT050=



000
FTUS45 KBOI 021734
TAFJER
TAF
KJER 021734Z 0218/0318 05016KT P6SM SKC
     FM030100 25008KT P6SM BKN150
     FM030700 25020G30KT P6SM SCT150=



000
FTUS45 KBOI 021734
TAFBNO
TAF
KBNO 021734Z 0218/0318 VRB05KT P6SM BKN150
     FM022300 31010G20KT P6SM SCT100
     FM031000 27010KT P6SM SCT100
      AMD LTD TO VIS CLD AND WIND=



000
FTUS45 KBOI 021120
TAFBKE
TAF
KBKE 021120Z 0212/0312 VRB06KT P6SM BKN200
     FM022300 33018G28KT P6SM SCT100=



000
FTUS45 KBOI 021120
TAFMYL
TAF
KMYL 021120Z 0212/0312 VRB03KT P6SM SCT100
     FM022100 31008KT P6SM VCSH BKN050 OVC080=



000
FTUS45 KBOI 021120
TAFBNO
TAF
KBNO 021120Z 0212/0312 VRB03KT P6SM BKN200
     FM022300 31010G20KT P6SM SCT100
      AMD LTD TO VIS CLD AND WIND=



000
FTUS45 KBOI 021120
TAFMYL
TAF
KMYL 021120Z 0212/0312 VRB03KT P6SM SCT100
     FM022100 31008KT P6SM VCSH BKN050 OVC080=



000
FTUS45 KBOI 021120
TAFJER
TAF
KJER 021120Z 0212/0312 06010KT P6SM SKC
     FM030200 25008KT P6SM BKN150
     FM030900 25020G30KT P6SM SCT150=



000
FTUS45 KBOI 021120
TAFBKE
TAF
KBKE 021120Z 0212/0312 VRB06KT P6SM BKN200
     FM022300 33018G28KT P6SM SCT100=



000
FTUS45 KBOI 021120
TAFTWF
TAF
KTWF 021120Z 0212/0312 16006KT P6SM SKC
     FM030200 24015KT P6SM BKN150
     FM030700 24020G30KT P6SM SCT150=



000
FTUS45 KBOI 021120
TAFBNO
TAF
KBNO 021120Z 0212/0312 VRB03KT P6SM BKN200
     FM022300 31010G20KT P6SM SCT100
      AMD LTD TO VIS CLD AND WIND=



000
FTUS45 KBOI 021120
TAFBOI
TAF
KBOI 021120Z 0212/0312 13009KT P6SM SKC
     FM022000 31008KT P6SM BKN150
     FM030600 31012KT P6SM SCT150=



000
FTUS45 KBOI 021120
TAFBOI
TAF
KBOI 021120Z 0212/0312 13009KT P6SM SKC
     FM022000 31008KT P6SM BKN150
     FM030600 31012KT P6SM SCT150=



000
FTUS45 KBOI 021120
TAFJER
TAF
KJER 021120Z 0212/0312 06010KT P6SM SKC
     FM030200 25008KT P6SM BKN150
     FM030900 25020G30KT P6SM SCT150=



000
FTUS45 KBOI 021120
TAFMYL
TAF
KMYL 021120Z 0212/0312 VRB03KT P6SM SCT100
     FM022100 31008KT P6SM VCSH BKN050 OVC080=



000
FTUS45 KBOI 021120
TAFBKE
TAF
KBKE 021120Z 0212/0312 VRB06KT P6SM BKN200
     FM022300 33018G28KT P6SM SCT100=



000
FTUS45 KBOI 021120
TAFBNO
TAF
KBNO 021120Z 0212/0312 VRB03KT P6SM BKN200
     FM022300 31010G20KT P6SM SCT100
      AMD LTD TO VIS CLD AND WIND=



000
FTUS45 KBOI 021120
TAFMYL
TAF
KMYL 021120Z 0212/0312 VRB03KT P6SM SCT100
     FM022100 31008KT P6SM VCSH BKN050 OVC080=



000
FTUS45 KBOI 021120
TAFBOI
TAF
KBOI 021120Z 0212/0312 13009KT P6SM SKC
     FM022000 31008KT P6SM BKN150
     FM030600 31012KT P6SM SCT150=



000
FTUS45 KBOI 021120
TAFTWF
TAF
KTWF 021120Z 0212/0312 16006KT P6SM SKC
     FM030200 24015KT P6SM BKN150
     FM030700 24020G30KT P6SM SCT150=



000
FTUS45 KBOI 021120
TAFBKE
TAF
KBKE 021120Z 0212/0312 VRB06KT P6SM BKN200
     FM022300 33018G28KT P6SM SCT100=



000
FTUS45 KBOI 021120
TAFTWF
TAF
KTWF 021120Z 0212/0312 16006KT P6SM SKC
     FM030200 24015KT P6SM BKN150
     FM030700 24020G30KT P6SM SCT150=



000
FTUS45 KBOI 021120
TAFBOI
TAF
KBOI 021120Z 0212/0312 13009KT P6SM SKC
     FM022000 31008KT P6SM BKN150
     FM030600 31012KT P6SM SCT150=



000
FTUS45 KBOI 021120
TAFJER
TAF
KJER 021120Z 0212/0312 06010KT P6SM SKC
     FM030200 25008KT P6SM BKN150
     FM030900 25020G30KT P6SM SCT150=



000
FTUS45 KBOI 021120
TAFJER
TAF
KJER 021120Z 0212/0312 06010KT P6SM SKC
     FM030200 25008KT P6SM BKN150
     FM030900 25020G30KT P6SM SCT150=



000
FTUS45 KBOI 021120
TAFBNO
TAF
KBNO 021120Z 0212/0312 VRB03KT P6SM BKN200
     FM022300 31010G20KT P6SM SCT100
      AMD LTD TO VIS CLD AND WIND=



000
FTUS45 KBOI 021120
TAFTWF
TAF
KTWF 021120Z 0212/0312 16006KT P6SM SKC
     FM030200 24015KT P6SM BKN150
     FM030700 24020G30KT P6SM SCT150=



000
FTUS45 KBOI 020523
TAFBNO
TAF
KBNO 020523Z 0206/0306 VRB03KT P6SM BKN200
     FM022000 31010G20KT P6SM OVC100
      AMD LTD TO VIS CLD AND WIND=



000
FTUS45 KBOI 020523
TAFBOI
TAF
KBOI 020523Z 0206/0306 13006KT P6SM SKC
     FM022000 31008KT P6SM SCT150=



000
FTUS45 KBOI 020523
TAFTWF
TAF
KTWF 020523Z 0206/0306 16006KT P6SM SKC
     FM021800 32008KT P6SM SKC=



000
FTUS45 KBOI 020523
TAFBKE
TAF
KBKE 020523Z 0206/0306 11006KT P6SM BKN200
     FM022000 33018G28KT P6SM OVC100=



000
FTUS45 KBOI 020523
TAFMYL
TAF
KMYL 020523Z 0206/0306 VRB04KT P6SM FEW100
     FM021100 VRB03KT P6SM SCT100
     FM022100 31008KT P6SM VCSH BKN050 OVC080=



000
FTUS45 KBOI 020523
TAFJER
TAF
KJER 020523Z 0206/0306 06010KT P6SM SKC
     FM021900 25008KT P6SM SKC=



000
FTUS45 KBOI 020523
TAFTWF
TAF
KTWF 020523Z 0206/0306 16006KT P6SM SKC
     FM021800 32008KT P6SM SKC=



000
FTUS45 KBOI 020523
TAFBKE
TAF
KBKE 020523Z 0206/0306 11006KT P6SM BKN200
     FM022000 33018G28KT P6SM OVC100=



000
FTUS45 KBOI 020523
TAFJER
TAF
KJER 020523Z 0206/0306 06010KT P6SM SKC
     FM021900 25008KT P6SM SKC=



000
FTUS45 KBOI 020523
TAFBNO
TAF
KBNO 020523Z 0206/0306 VRB03KT P6SM BKN200
     FM022000 31010G20KT P6SM OVC100
      AMD LTD TO VIS CLD AND WIND=



000
FTUS45 KBOI 020523
TAFMYL
TAF
KMYL 020523Z 0206/0306 VRB04KT P6SM FEW100
     FM021100 VRB03KT P6SM SCT100
     FM022100 31008KT P6SM VCSH BKN050 OVC080=



000
FTUS45 KBOI 020523
TAFBOI
TAF
KBOI 020523Z 0206/0306 13006KT P6SM SKC
     FM022000 31008KT P6SM SCT150=



000
FTUS45 KBOI 012324 CCA
TAFJER
TAF COR
KJER 012324Z 0200/0224 06010KT P6SM SKC
     FM021900 25008KT P6SM SKC=



000
FTUS45 KBOI 012324 CCA
TAFJER
TAF COR
KJER 012324Z 0200/0224 06010KT P6SM SKC
     FM021900 25008KT P6SM SKC=



000
FTUS45 KBOI 012323
TAFBOI
TAF
KBOI 012323Z 0200/0224 14008KT P6SM SKC
     FM022000 31008KT P6SM SCT150=



000
FTUS45 KBOI 012323
TAFTWF
TAF
KTWF 012323Z 0200/0224 06011KT P6SM SKC
     FM020300 16006KT P6SM SKC
     FM021800 32008KT P6SM SKC=



000
FTUS45 KBOI 012323
TAFMYL
TAF
KMYL 012323Z 0200/0224 VRB04KT P6SM FEW060
     FM021100 VRB03KT P6SM SCT200
     FM022100 31008KT P6SM VCSH BKN050 OVC080=



000
FTUS45 KBOI 012323
TAFBOI
TAF
KBOI 012323Z 0200/0224 14008KT P6SM SKC
     FM022000 31008KT P6SM SCT150=



000
FTUS45 KBOI 012323
TAFBKE
TAF
KBKE 012323Z 0200/0224 VRB06KT P6SM SKC
     FM020300 VRB03KT P6SM BKN200
     FM022000 33018G28KT P6SM OVC100=



000
FTUS45 KBOI 012323
TAFJER
TAF
KJER 012323Z 0200/0224 06010KT P6SM SKC
     FM021900 25008KT P6SM SKC
      AMD LTD TO VIS WX AND CLD=



000
FTUS45 KBOI 012323
TAFBNO
TAF
KBNO 012323Z 0200/0224 VRB04KT P6SM SKC
     FM020600 VRB03KT P6SM BKN200
     FM022000 31010G20KT P6SM OVC100
      AMD LTD TO VIS CLD AND WIND=



000
FTUS45 KBOI 012323
TAFTWF
TAF
KTWF 012323Z 0200/0224 06011KT P6SM SKC
     FM020300 16006KT P6SM SKC
     FM021800 32008KT P6SM SKC=



000
FTUS45 KBOI 012323
TAFBNO
TAF
KBNO 012323Z 0200/0224 VRB04KT P6SM SKC
     FM020600 VRB03KT P6SM BKN200
     FM022000 31010G20KT P6SM OVC100
      AMD LTD TO VIS CLD AND WIND=



000
FTUS45 KBOI 012323
TAFJER
TAF
KJER 012323Z 0200/0224 06010KT P6SM SKC
     FM021900 25008KT P6SM SKC
      AMD LTD TO VIS WX AND CLD=



000
FTUS45 KBOI 012323
TAFMYL
TAF
KMYL 012323Z 0200/0224 VRB04KT P6SM FEW060
     FM021100 VRB03KT P6SM SCT200
     FM022100 31008KT P6SM VCSH BKN050 OVC080=



000
FTUS45 KBOI 012323
TAFBKE
TAF
KBKE 012323Z 0200/0224 VRB06KT P6SM SKC
     FM020300 VRB03KT P6SM BKN200
     FM022000 33018G28KT P6SM OVC100=



000
FTUS45 KBOI 011735
TAFTWF
TAF
KTWF 011735Z 0118/0218 07018KT P6SM SKC
     FM012000 06011KT P6SM SKC
     FM020300 16006KT P6SM SKC=



000
FTUS45 KBOI 011735
TAFJER
TAF
KJER 011735Z 0118/0218 06010KT P6SM SKC=



000
FTUS45 KBOI 011735
TAFBKE
TAF
KBKE 011735Z 0118/0218 VRB05KT P6SM SKC
     FM020300 VRB03KT P6SM BKN200=



000
FTUS45 KBOI 011735
TAFBNO
TAF
KBNO 011735Z 0118/0218 VRB04KT P6SM SKC
     FM020600 VRB03KT P6SM BKN200
      AMD LTD TO VIS CLD AND WIND=



000
FTUS45 KBOI 011735
TAFBOI
TAF
KBOI 011735Z 0118/0218 14014KT P6SM FEW050
     FM012000 14008KT P6SM SKC=



000
FTUS45 KBOI 011735
TAFBKE
TAF
KBKE 011735Z 0118/0218 VRB05KT P6SM SKC
     FM020300 VRB03KT P6SM BKN200=



000
FTUS45 KBOI 011735
TAFBKE
TAF
KBKE 011735Z 0118/0218 VRB05KT P6SM SKC
     FM020300 VRB03KT P6SM BKN200=



000
FTUS45 KBOI 011735
TAFMYL
TAF
KMYL 011735Z 0118/0218 VRB04KT P6SM FEW060
     FM021100 VRB03KT P6SM SCT200=



000
FTUS45 KBOI 011735
TAFTWF
TAF
KTWF 011735Z 0118/0218 07018KT P6SM SKC
     FM012000 06011KT P6SM SKC
     FM020300 16006KT P6SM SKC=



000
FTUS45 KBOI 011735
TAFBNO
TAF
KBNO 011735Z 0118/0218 VRB04KT P6SM SKC
     FM020600 VRB03KT P6SM BKN200
      AMD LTD TO VIS CLD AND WIND=



000
FTUS45 KBOI 011735
TAFJER
TAF
KJER 011735Z 0118/0218 06010KT P6SM SKC=



000
FTUS45 KBOI 011735
TAFBNO
TAF
KBNO 011735Z 0118/0218 VRB04KT P6SM SKC
     FM020600 VRB03KT P6SM BKN200
      AMD LTD TO VIS CLD AND WIND=



000
FTUS45 KBOI 011735
TAFBNO
TAF
KBNO 011735Z 0118/0218 VRB04KT P6SM SKC
     FM020600 VRB03KT P6SM BKN200
      AMD LTD TO VIS CLD AND WIND=



000
FTUS45 KBOI 011735
TAFBOI
TAF
KBOI 011735Z 0118/0218 14014KT P6SM FEW050
     FM012000 14008KT P6SM SKC=



000
FTUS45 KBOI 011735
TAFMYL
TAF
KMYL 011735Z 0118/0218 VRB04KT P6SM FEW060
     FM021100 VRB03KT P6SM SCT200=



000
FTUS45 KBOI 011735
TAFBKE
TAF
KBKE 011735Z 0118/0218 VRB05KT P6SM SKC
     FM020300 VRB03KT P6SM BKN200=



000
FTUS45 KBOI 011735
TAFTWF
TAF
KTWF 011735Z 0118/0218 07018KT P6SM SKC
     FM012000 06011KT P6SM SKC
     FM020300 16006KT P6SM SKC=



000
FTUS45 KBOI 011735
TAFJER
TAF
KJER 011735Z 0118/0218 06010KT P6SM SKC=



000
FTUS45 KBOI 011735
TAFJER
TAF
KJER 011735Z 0118/0218 06010KT P6SM SKC=



000
FTUS45 KBOI 011735
TAFMYL
TAF
KMYL 011735Z 0118/0218 VRB04KT P6SM FEW060
     FM021100 VRB03KT P6SM SCT200=



000
FTUS45 KBOI 011735
TAFBOI
TAF
KBOI 011735Z 0118/0218 14014KT P6SM FEW050
     FM012000 14008KT P6SM SKC=



000
FTUS45 KBOI 011735
TAFBOI
TAF
KBOI 011735Z 0118/0218 14014KT P6SM FEW050
     FM012000 14008KT P6SM SKC=



000
FTUS45 KBOI 011735
TAFMYL
TAF
KMYL 011735Z 0118/0218 VRB04KT P6SM FEW060
     FM021100 VRB03KT P6SM SCT200=



000
FTUS45 KBOI 011735
TAFTWF
TAF
KTWF 011735Z 0118/0218 07018KT P6SM SKC
     FM012000 06011KT P6SM SKC
     FM020300 16006KT P6SM SKC=



000
FTUS45 KBOI 011632 AAA
TAFTWF
TAF AMD
KTWF 011632Z 0117/0212 08014G24KT P6SM FEW150
     FM011800 06011KT P6SM SKC
     FM020400 16006KT P6SM SKC=



000
FTUS45 KBOI 011632 AAA
TAFTWF
TAF AMD
KTWF 011632Z 0117/0212 08014G24KT P6SM FEW150
     FM011800 06011KT P6SM SKC
     FM020400 16006KT P6SM SKC=



000
FTUS45 KBOI 011632 AAA
TAFTWF
TAF AMD
KTWF 011632Z 0117/0212 08014G24KT P6SM FEW150
     FM011800 06011KT P6SM SKC
     FM020400 16006KT P6SM SKC=



000
FTUS45 KBOI 011632 AAA
TAFTWF
TAF AMD
KTWF 011632Z 0117/0212 08014G24KT P6SM FEW150
     FM011800 06011KT P6SM SKC
     FM020400 16006KT P6SM SKC=



000
FTUS45 KBOI 011631 AAC
TAFBOI
TAF AMD
KBOI 011631Z 0117/0212 14014KT P6SM FEW050
     FM011800 14006KT P6SM FEW200=



000
FTUS45 KBOI 011631 AAC
TAFBOI
TAF AMD
KBOI 011631Z 0117/0212 14014KT P6SM FEW050
     FM011800 14006KT P6SM FEW200=



000
FTUS45 KBOI 011408 AAB
TAFBOI
TAF AMD
KBOI 011408Z 0114/0212 14006KT 6SM -SN SCT025 BKN035 OVC050
     FM011600 VRB04KT P6SM SCT040 BKN100
     FM011800 14006KT P6SM FEW200=



000
FTUS45 KBOI 011203 AAA
TAFBOI
TAF AMD
KBOI 011203Z 0112/0212 VRB04KT P6SM SCT090 BKN150
      TEMPO 0112/0116 14006KT P6SM BKN040 OVC090
     FM011800 14006KT P6SM SKC=



000
FTUS45 KBOI 011203 AAA
TAFBOI
TAF AMD
KBOI 011203Z 0112/0212 VRB04KT P6SM SCT090 BKN150
      TEMPO 0112/0116 14006KT P6SM BKN040 OVC090
     FM011800 14006KT P6SM SKC=



000
FTUS45 KBOI 011120
TAFJER
TAF
KJER 011120Z 0112/0212 08008KT P6SM SKC
     FM011800 05014KT P6SM SKC
     FM020300 07007KT P6SM SKC=



000
FTUS45 KBOI 011120
TAFBOI
TAF
KBOI 011120Z 0112/0212 VRB04KT P6SM SCT090 BKN150
     FM011800 14006KT P6SM SKC=



000
FTUS45 KBOI 011120
TAFTWF
TAF
KTWF 011120Z 0112/0212 10009KT P6SM FEW150
     FM011700 05007KT P6SM SKC
     FM020400 16006KT P6SM SKC=



000
FTUS45 KBOI 011120
TAFBNO
TAF
KBNO 011120Z 0112/0212 32005KT P6SM SKC
     FM020800 32005KT P6SM BKN200
      AMD LTD TO VIS CLD AND WIND=



000
FTUS45 KBOI 011120
TAFMYL
TAF
KMYL 011120Z 0112/0212 VRB04KT P6SM SKC
      TEMPO 0121/0201 18004KT P6SM FEW060 SCT120
     FM021100 VRB02KT P6SM BKN200=



000
FTUS45 KBOI 011120
TAFBKE
TAF
KBKE 011120Z 0112/0212 VRB06KT P6SM SKC
     FM020900 13003KT P6SM BKN200=



000
FTUS45 KBOI 011120
TAFJER
TAF
KJER 011120Z 0112/0212 08008KT P6SM SKC
     FM011800 05014KT P6SM SKC
     FM020300 07007KT P6SM SKC=



000
FTUS45 KBOI 011120
TAFTWF
TAF
KTWF 011120Z 0112/0212 10009KT P6SM FEW150
     FM011700 05007KT P6SM SKC
     FM020400 16006KT P6SM SKC=



000
FTUS45 KBOI 011120
TAFBNO
TAF
KBNO 011120Z 0112/0212 32005KT P6SM SKC
     FM020800 32005KT P6SM BKN200
      AMD LTD TO VIS CLD AND WIND=



000
FTUS45 KBOI 011120
TAFBKE
TAF
KBKE 011120Z 0112/0212 VRB06KT P6SM SKC
     FM020900 13003KT P6SM BKN200=



000
FTUS45 KBOI 011120
TAFBOI
TAF
KBOI 011120Z 0112/0212 VRB04KT P6SM SCT090 BKN150
     FM011800 14006KT P6SM SKC=



000
FTUS45 KBOI 011120
TAFMYL
TAF
KMYL 011120Z 0112/0212 VRB04KT P6SM SKC
      TEMPO 0121/0201 18004KT P6SM FEW060 SCT120
     FM021100 VRB02KT P6SM BKN200=



000
FTUS45 KBOI 010530
TAFBKE
TAF
KBKE 010530Z 0106/0206 VRB06KT P6SM SKC=



000
FTUS45 KBOI 010530
TAFBNO
TAF
KBNO 010530Z 0106/0206 28006KT P6SM SKC
      AMD LTD TO VIS CLD AND WIND=



000
FTUS45 KBOI 010530
TAFBOI
TAF
KBOI 010530Z 0106/0206 VRB06KT P6SM SCT090
     FM011300 14006KT P6SM SKC=



000
FTUS45 KBOI 010530
TAFBNO
TAF
KBNO 010530Z 0106/0206 28006KT P6SM SKC
      AMD LTD TO VIS CLD AND WIND=



000
FTUS45 KBOI 010530
TAFTWF
TAF
KTWF 010530Z 0106/0206 18006KT P6SM SCT100
     FM010900 10006KT P6SM SKC
     FM011700 05006KT P6SM SKC=



000
FTUS45 KBOI 010530
TAFJER
TAF
KJER 010530Z 0106/0206 04008KT P6SM SKC=



000
FTUS45 KBOI 010530
TAFJER
TAF
KJER 010530Z 0106/0206 04008KT P6SM SKC=



000
FTUS45 KBOI 010530
TAFBOI
TAF
KBOI 010530Z 0106/0206 VRB06KT P6SM SCT090
     FM011300 14006KT P6SM SKC=



000
FTUS45 KBOI 010530
TAFMYL
TAF
KMYL 010530Z 0106/0206 33006KT P6SM SKC
     FM010800 VRB04KT P6SM SKC=



000
FTUS45 KBOI 010530
TAFBKE
TAF
KBKE 010530Z 0106/0206 VRB06KT P6SM SKC=



000
FTUS45 KBOI 010530
TAFMYL
TAF
KMYL 010530Z 0106/0206 33006KT P6SM SKC
     FM010800 VRB04KT P6SM SKC=



000
FTUS45 KBOI 010530
TAFTWF
TAF
KTWF 010530Z 0106/0206 18006KT P6SM SCT100
     FM010900 10006KT P6SM SKC
     FM011700 05006KT P6SM SKC=



000
FTUS45 KBOI 010352 AAA
TAFMYL
TAF AMD
KMYL 010352Z 0104/0124 33011G20KT P6SM SKC
     FM010700 VRB04KT P6SM SKC=



000
FTUS45 KBOI 010352 AAA
TAFMYL
TAF AMD
KMYL 010352Z 0104/0124 33011G20KT P6SM SKC
     FM010700 VRB04KT P6SM SKC=



000
FTUS45 KBOI 010352 AAA
TAFMYL
TAF AMD
KMYL 010352Z 0104/0124 33011G20KT P6SM SKC
     FM010700 VRB04KT P6SM SKC=



000
FTUS45 KBOI 010351 AAA
TAFTWF
TAF AMD
KTWF 010351Z 0104/0124 VRB06KT P6SM SCT100
     FM010600 05008KT P6SM SCT100=



000
FTUS45 KBOI 010351 AAA
TAFTWF
TAF AMD
KTWF 010351Z 0104/0124 VRB06KT P6SM SCT100
     FM010600 05008KT P6SM SCT100=



000
FTUS45 KBOI 010351 AAA
TAFTWF
TAF AMD
KTWF 010351Z 0104/0124 VRB06KT P6SM SCT100
     FM010600 05008KT P6SM SCT100=



000
FTUS45 KBOI 010351 AAA
TAFTWF
TAF AMD
KTWF 010351Z 0104/0124 VRB06KT P6SM SCT100
     FM010600 05008KT P6SM SCT100=



000
FTUS45 KBOI 010350 AAA
TAFJER
TAF AMD
KJER 010350Z 0104/0124 30004KT P6SM SCT100
     FM010600 04008KT P6SM SCT100=



000
FTUS45 KBOI 010350 AAA
TAFJER
TAF AMD
KJER 010350Z 0104/0124 30004KT P6SM SCT100
     FM010600 04008KT P6SM SCT100=



000
FTUS45 KBOI 010350 AAA
TAFJER
TAF AMD
KJER 010350Z 0104/0124 30004KT P6SM SCT100
     FM010600 04008KT P6SM SCT100=



000
FTUS45 KBOI 010350 AAA
TAFJER
TAF AMD
KJER 010350Z 0104/0124 30004KT P6SM SCT100
     FM010600 04008KT P6SM SCT100=



    US Dept of Commerce
    National Oceanic and Atmospheric Administration
    National Weather Service
    1325 East West Highway
    Silver Spring, MD 20910
    Page Author: NWS Internet Services Team
Disclaimer
Information Quality
Credits
Glossary
Privacy Policy
Freedom of Information Act (FOIA)
About Us
Career Opportunities